createdAt,value
2022-12-04T00:01:15.197Z,-1.09
2022-12-04T00:03:42.100Z,-1.13
2022-12-04T00:06:11.840Z,-1.15
2022-12-04T00:08:39.054Z,-1.14
2022-12-04T00:11:07.287Z,-1.07
2022-12-04T00:13:34.253Z,-1.11
2022-12-04T00:16:01.139Z,-1.01
2022-12-04T00:18:27.890Z,-0.96
2022-12-04T00:20:54.525Z,-0.95
2022-12-04T00:23:21.300Z,-0.93
2022-12-04T00:25:48.861Z,-0.90
2022-12-04T00:28:19.166Z,-0.94
2022-12-04T00:30:46.292Z,-0.97
2022-12-04T00:33:13.876Z,-1.01
2022-12-04T00:35:40.969Z,-1.01
2022-12-04T00:38:07.789Z,-0.95
2022-12-04T00:40:34.375Z,-0.95
2022-12-04T00:43:00.952Z,-1.00
2022-12-04T00:45:27.674Z,-1.05
2022-12-04T00:47:54.696Z,-1.04
2022-12-04T00:50:21.575Z,-1.00
2022-12-04T00:52:48.146Z,-0.95
2022-12-04T00:55:14.786Z,-0.98
2022-12-04T00:57:41.411Z,-0.96
2022-12-04T01:00:08.522Z,-0.96
2022-12-04T01:02:35.176Z,-0.85
2022-12-04T01:05:02.115Z,-0.88
2022-12-04T01:07:28.708Z,-0.91
2022-12-04T01:09:55.660Z,-0.93
2022-12-04T01:12:23.729Z,-0.92
2022-12-04T01:14:50.325Z,-0.93
2022-12-04T01:17:17.068Z,-0.89
2022-12-04T01:19:43.655Z,-0.90
2022-12-04T01:22:10.349Z,-0.95
2022-12-04T01:24:36.913Z,-0.98
2022-12-04T01:27:03.471Z,-0.98
2022-12-04T01:29:30.099Z,-0.99
2022-12-04T01:31:56.753Z,-0.92
2022-12-04T01:34:25.234Z,-0.94
2022-12-04T01:36:52.201Z,-0.89
2022-12-04T01:39:19.608Z,-0.88
2022-12-04T01:41:46.273Z,-0.88
2022-12-04T01:44:19.360Z,-0.82
2022-12-04T01:46:59.425Z,-0.85
2022-12-04T01:49:29.003Z,-0.91
2022-12-04T01:52:00.944Z,-0.86
2022-12-04T01:54:32.383Z,-0.87
2022-12-04T01:57:06.395Z,-0.83
2022-12-04T01:59:39.954Z,-0.76
2022-12-04T02:02:16.310Z,-0.78
2022-12-04T02:04:43.858Z,-0.77
2022-12-04T02:07:11.166Z,-0.70
2022-12-04T02:09:41.945Z,-0.76
2022-12-04T02:12:08.848Z,-0.79
2022-12-04T02:14:54.171Z,-0.72
2022-12-04T02:17:46.806Z,-0.70
2022-12-04T02:20:22.963Z,-0.78
2022-12-04T02:23:17.649Z,-0.83
2022-12-04T02:26:05.437Z,-0.80
2022-12-04T02:28:53.966Z,-0.76
2022-12-04T02:31:25.804Z,-0.78
2022-12-04T02:34:01.065Z,-0.84
2022-12-04T02:36:31.519Z,-0.86
2022-12-04T02:39:15.437Z,-0.89
2022-12-04T02:42:12.271Z,-0.93
2022-12-04T02:44:45.154Z,-0.98
2022-12-04T02:47:17.377Z,-0.97
2022-12-04T02:49:49.533Z,-0.87
2022-12-04T02:52:21.806Z,-0.93
2022-12-04T02:54:53.434Z,-0.92
2022-12-04T02:57:27.033Z,-0.99
2022-12-04T02:59:56.676Z,-0.95
2022-12-04T03:02:27.418Z,-0.98
2022-12-04T03:04:56.777Z,-0.96
2022-12-04T03:07:34.101Z,-0.98
2022-12-04T03:10:17.648Z,-0.95
2022-12-04T03:12:51.896Z,-0.93
2022-12-04T03:15:34.188Z,-0.96
2022-12-04T03:18:06.361Z,-0.93
2022-12-04T03:20:36.562Z,-0.94
2022-12-04T03:23:09.611Z,-0.88
2022-12-04T03:25:44.289Z,-0.89
2022-12-04T03:28:39.178Z,-0.89
2022-12-04T03:31:09.352Z,-0.82
2022-12-04T03:33:45.001Z,-0.83
2022-12-04T03:36:26.842Z,-0.81
2022-12-04T03:39:03.571Z,-0.79
2022-12-04T03:41:55.384Z,-0.83
2022-12-04T03:44:44.014Z,-0.84
2022-12-04T03:47:14.761Z,-0.77
2022-12-04T03:49:49.069Z,-0.79
2022-12-04T03:52:44.699Z,-0.75
2022-12-04T03:55:34.750Z,-0.75
2022-12-04T03:58:08.356Z,-0.70
2022-12-04T04:00:39.606Z,-0.72
2022-12-04T04:03:21.102Z,-0.69
2022-12-04T04:05:54.493Z,-0.72
2022-12-04T04:08:27.484Z,-0.77
2022-12-04T04:10:59.932Z,-0.85
2022-12-04T04:13:56.073Z,-0.88
2022-12-04T04:16:44.895Z,-0.90
2022-12-04T04:19:34.143Z,-0.84
2022-12-04T04:22:22.453Z,-0.87
2022-12-04T04:24:57.143Z,-0.86
2022-12-04T04:27:23.731Z,-0.80
2022-12-04T04:29:52.748Z,-0.81
2022-12-04T04:32:37.933Z,-0.84
2022-12-04T04:35:35.314Z,-0.78
2022-12-04T04:38:16.620Z,-0.70
2022-12-04T04:40:58.570Z,-0.70
2022-12-04T04:43:43.130Z,-0.64
2022-12-04T04:46:22.768Z,-0.71
2022-12-04T04:48:53.667Z,-0.70
2022-12-04T04:51:20.989Z,-0.69
2022-12-04T04:53:53.885Z,-0.65
2022-12-04T04:56:21.906Z,-0.65
2022-12-04T04:58:48.506Z,-0.61
2022-12-04T05:01:19.088Z,-0.66
2022-12-04T05:03:46.398Z,-0.66
2022-12-04T05:06:13.213Z,-0.58
2022-12-04T05:08:40.148Z,-0.54
2022-12-04T05:11:10.997Z,-0.58
2022-12-04T05:13:37.544Z,-0.59
2022-12-04T05:16:07.574Z,-0.56
2022-12-04T05:18:35.530Z,-0.56
2022-12-04T05:21:15.865Z,-0.57
2022-12-04T05:23:42.501Z,-0.51
2022-12-04T05:26:09.261Z,-0.54
2022-12-04T05:28:35.887Z,-0.51
2022-12-04T05:31:03.383Z,-0.50
2022-12-04T05:33:30.410Z,-0.48
2022-12-04T05:36:07.791Z,-0.52
2022-12-04T05:38:34.558Z,-0.53
2022-12-04T05:41:03.548Z,-0.64
2022-12-04T05:43:30.445Z,-0.70
2022-12-04T05:46:06.269Z,-0.68
2022-12-04T05:48:34.798Z,-0.59
2022-12-04T05:51:05.883Z,-0.52
2022-12-04T05:53:32.459Z,-0.56
2022-12-04T05:56:01.564Z,-0.57
2022-12-04T05:58:28.342Z,-0.59
2022-12-04T06:00:54.946Z,-0.52
2022-12-04T06:03:22.317Z,-0.53
2022-12-04T06:05:49.026Z,-0.56
2022-12-04T06:08:15.717Z,-0.60
2022-12-04T06:10:42.344Z,-0.64
2022-12-04T06:13:09.046Z,-0.66
2022-12-04T06:15:40.212Z,-0.65
2022-12-04T06:18:07.367Z,-0.68
2022-12-04T06:20:34.508Z,-0.71
2022-12-04T06:23:01.288Z,-0.64
2022-12-04T06:25:27.857Z,-0.68
2022-12-04T06:27:54.443Z,-0.62
2022-12-04T06:30:21.058Z,-0.60
2022-12-04T06:32:47.677Z,-0.61
2022-12-04T06:35:14.210Z,-0.61
2022-12-04T06:37:40.827Z,-0.62
2022-12-04T06:40:08.123Z,-0.67
2022-12-04T06:42:34.677Z,-0.73
2022-12-04T06:45:01.208Z,-0.68
2022-12-04T06:47:27.774Z,-0.60
2022-12-04T06:49:54.857Z,-0.67
2022-12-04T06:52:21.531Z,-0.67
2022-12-04T06:54:48.139Z,-0.69
2022-12-04T06:57:14.686Z,-0.70
2022-12-04T06:59:41.261Z,-0.60
2022-12-04T07:02:09.418Z,-0.65
2022-12-04T07:04:36.047Z,-0.56
2022-12-04T07:07:02.710Z,-0.58
2022-12-04T07:09:29.341Z,-0.59
2022-12-04T07:11:55.941Z,-0.54
2022-12-04T07:14:22.510Z,-0.51
2022-12-04T07:16:49.088Z,-0.52
2022-12-04T07:19:15.700Z,-0.53
2022-12-04T07:21:42.986Z,-0.49
2022-12-04T07:24:15.040Z,-0.53
2022-12-04T07:26:41.689Z,-0.41
2022-12-04T07:29:08.470Z,-0.44
2022-12-04T07:31:35.082Z,-0.48
2022-12-04T07:34:01.983Z,-0.40
2022-12-04T07:36:28.610Z,-0.32
2022-12-04T07:38:56.413Z,-0.39
2022-12-04T07:41:23.584Z,-0.37
2022-12-04T07:43:53.722Z,-0.37
2022-12-04T07:46:23.947Z,-0.40
2022-12-04T07:48:50.689Z,-0.33
2022-12-04T07:51:20.150Z,-0.35
2022-12-04T07:53:47.387Z,-0.30
2022-12-04T07:56:14.857Z,-0.35
2022-12-04T07:58:41.934Z,-0.38
2022-12-04T08:01:12.989Z,-0.32
2022-12-04T08:03:46.722Z,-0.46
2022-12-04T08:06:14.565Z,-0.44
2022-12-04T08:08:41.195Z,-0.41
2022-12-04T08:11:13.315Z,-0.46
2022-12-04T08:13:39.983Z,-0.50
2022-12-04T08:16:08.862Z,-0.50
2022-12-04T08:18:35.561Z,-0.52
2022-12-04T08:21:12.215Z,-0.49
2022-12-04T08:23:40.285Z,-0.46
2022-12-04T08:26:07.830Z,-0.43
2022-12-04T08:28:35.223Z,-0.37
2022-12-04T08:31:04.507Z,-0.37
2022-12-04T08:33:31.488Z,-0.36
2022-12-04T08:35:58.913Z,-0.32
2022-12-04T08:38:25.715Z,-0.32
2022-12-04T08:40:52.282Z,-0.31
2022-12-04T08:43:18.898Z,-0.18
2022-12-04T08:45:54.898Z,-0.26
2022-12-04T08:48:21.512Z,-0.29
2022-12-04T08:50:48.052Z,-0.26
2022-12-04T08:53:14.726Z,-0.25
2022-12-04T08:55:41.392Z,-0.22
2022-12-04T08:58:07.984Z,-0.22
2022-12-04T09:00:34.586Z,-0.14
2022-12-04T09:03:01.218Z,-0.09
2022-12-04T09:05:29.554Z,-0.06
2022-12-04T09:07:59.862Z,0.07
2022-12-04T09:10:26.509Z,0.03
2022-12-04T09:12:55.289Z,0.08
2022-12-04T09:15:21.920Z,0.14
2022-12-04T09:17:48.528Z,0.07
2022-12-04T09:20:17.906Z,0.07
2022-12-04T09:23:02.847Z,0.09
2022-12-04T09:25:30.921Z,0.09
2022-12-04T09:27:57.520Z,0.12
2022-12-04T09:30:24.176Z,0.16
2022-12-04T09:32:50.838Z,0.25
2022-12-04T09:35:17.478Z,0.26
2022-12-04T09:37:44.110Z,0.30
2022-12-04T09:40:37.182Z,0.24
2022-12-04T09:43:07.688Z,0.35
2022-12-04T09:45:46.767Z,0.24
2022-12-04T09:48:18.066Z,0.40
2022-12-04T09:50:48.026Z,0.47
2022-12-04T09:53:36.507Z,0.59
2022-12-04T09:56:10.761Z,0.66
2022-12-04T09:58:40.473Z,0.66
2022-12-04T10:01:20.650Z,0.52
2022-12-04T10:03:47.451Z,0.45
2022-12-04T10:06:16.812Z,0.43
2022-12-04T10:09:01.223Z,0.54
2022-12-04T10:11:52.357Z,0.67
2022-12-04T10:14:40.069Z,0.73
2022-12-04T10:17:48.622Z,0.71
2022-12-04T10:20:33.597Z,0.78
2022-12-04T10:23:10.526Z,0.76
2022-12-04T10:25:41.484Z,0.78
2022-12-04T10:28:14.128Z,0.79
2022-12-04T10:30:43.049Z,0.84
2022-12-04T10:33:09.872Z,0.89
2022-12-04T10:35:41.130Z,0.86
2022-12-04T10:38:23.876Z,0.76
2022-12-04T10:40:59.850Z,0.58
2022-12-04T10:43:53.060Z,0.72
2022-12-04T10:46:25.299Z,0.76
2022-12-04T10:48:59.846Z,0.92
2022-12-04T10:51:27.106Z,0.74
2022-12-04T10:53:55.768Z,0.73
2022-12-04T10:56:25.886Z,0.65
2022-12-04T10:59:01.444Z,0.70
2022-12-04T11:01:30.761Z,0.91
2022-12-04T11:04:02.818Z,0.78
2022-12-04T11:06:30.424Z,0.65
2022-12-04T11:08:58.637Z,0.60
2022-12-04T11:11:34.685Z,0.53
2022-12-04T11:14:16.750Z,0.37
2022-12-04T11:16:48.256Z,0.28
2022-12-04T11:19:33.562Z,0.31
2022-12-04T11:22:14.684Z,0.33
2022-12-04T11:24:42.753Z,0.37
2022-12-04T11:27:36.611Z,0.43
2022-12-04T11:30:10.768Z,0.66
2022-12-04T11:32:38.605Z,0.73
2022-12-04T11:35:20.503Z,0.74
2022-12-04T11:37:55.272Z,0.79
2022-12-04T11:40:23.700Z,0.86
2022-12-04T11:43:04.781Z,0.77
2022-12-04T11:45:32.659Z,0.81
2022-12-04T11:48:02.117Z,0.79
2022-12-04T11:50:50.751Z,0.75
2022-12-04T11:53:26.251Z,0.81
2022-12-04T11:56:02.492Z,0.83
2022-12-04T11:58:47.518Z,0.85
2022-12-04T12:01:38.740Z,0.87
2022-12-04T12:04:43.264Z,0.93
2022-12-04T12:07:40.974Z,0.96
2022-12-04T12:10:24.540Z,0.90
2022-12-04T12:13:04.494Z,0.73
2022-12-04T12:16:19.270Z,0.69
2022-12-04T12:19:04.746Z,0.90
2022-12-04T12:21:36.508Z,0.94
2022-12-04T12:24:15.957Z,1.08
2022-12-04T12:26:51.535Z,0.82
2022-12-04T12:29:21.156Z,0.86
2022-12-04T12:32:15.576Z,0.87
2022-12-04T12:34:45.420Z,0.86
2022-12-04T12:37:36.672Z,0.91
2022-12-04T12:40:07.662Z,1.04
2022-12-04T12:42:39.046Z,1.04
2022-12-04T12:45:28.629Z,0.92
2022-12-04T12:48:00.212Z,0.99
2022-12-04T12:50:38.514Z,1.00
2022-12-04T12:53:16.594Z,1.04
2022-12-04T12:55:48.397Z,1.06
2022-12-04T12:58:14.858Z,0.98
2022-12-04T13:01:33.431Z,1.02
2022-12-04T13:04:13.094Z,1.02
2022-12-04T13:06:45.781Z,1.05
2022-12-04T13:09:26.911Z,1.11
2022-12-04T13:12:02.438Z,1.11
2022-12-04T13:14:29.127Z,1.17
2022-12-04T13:17:10.297Z,1.14
2022-12-04T13:19:43.398Z,1.07
2022-12-04T13:22:28.569Z,1.09
2022-12-04T13:25:04.722Z,1.01
2022-12-04T13:28:01.346Z,1.05
2022-12-04T13:31:00.273Z,1.10
2022-12-04T13:33:38.974Z,0.95
2022-12-04T13:36:26.809Z,0.99
2022-12-04T13:39:31.959Z,0.79
2022-12-04T13:42:01.093Z,0.77
2022-12-04T13:44:29.741Z,0.78
2022-12-04T13:47:06.517Z,0.87
2022-12-04T13:49:38.666Z,0.87
2022-12-04T13:52:20.470Z,0.97
2022-12-04T13:54:58.393Z,0.91
2022-12-04T13:57:27.373Z,0.95
2022-12-04T14:00:24.484Z,0.97
2022-12-04T14:02:53.942Z,0.84
2022-12-04T14:05:29.293Z,0.82
2022-12-04T14:08:26.247Z,0.92
2022-12-04T14:11:04.310Z,0.93
2022-12-04T14:13:52.433Z,0.73
2022-12-04T14:16:24.871Z,0.76
2022-12-04T14:19:02.745Z,0.81
2022-12-04T14:21:46.857Z,0.79
2022-12-04T14:24:26.225Z,0.86
2022-12-04T14:27:11.368Z,0.83
2022-12-04T14:29:52.676Z,0.81
2022-12-04T14:32:25.345Z,0.98
2022-12-04T14:34:53.345Z,0.95
2022-12-04T14:37:29.011Z,0.94
2022-12-04T14:39:57.641Z,0.83
2022-12-04T14:42:27.656Z,0.81
2022-12-04T14:44:59.817Z,0.67
2022-12-04T14:47:42.693Z,0.76
2022-12-04T14:50:40.185Z,0.68
2022-12-04T14:53:26.487Z,0.57
2022-12-04T14:56:24.077Z,0.67
2022-12-04T14:58:51.313Z,0.66
2022-12-04T15:01:29.418Z,1.01
2022-12-04T15:03:59.684Z,1.27
2022-12-04T15:06:29.530Z,1.10
2022-12-04T15:09:17.780Z,0.86
2022-12-04T15:12:08.602Z,0.97
2022-12-04T15:14:49.620Z,1.13
2022-12-04T15:17:18.638Z,0.89
2022-12-04T15:19:45.818Z,0.82
2022-12-04T15:22:23.731Z,0.91
2022-12-04T15:24:51.968Z,1.40
2022-12-04T15:27:27.267Z,1.26
2022-12-04T15:29:58.018Z,1.28
2022-12-04T15:32:28.765Z,0.97
2022-12-04T15:35:02.175Z,1.01
2022-12-04T15:37:30.810Z,0.83
2022-12-04T15:39:58.484Z,0.82
2022-12-04T15:42:29.895Z,1.07
2022-12-04T15:45:23.983Z,1.15
2022-12-04T15:47:57.233Z,1.05
2022-12-04T15:50:28.641Z,0.88
2022-12-04T15:52:58.244Z,0.80
2022-12-04T15:55:28.062Z,0.94
2022-12-04T15:58:02.081Z,0.85
2022-12-04T16:00:36.256Z,0.85
2022-12-04T16:03:17.347Z,0.81
2022-12-04T16:05:43.939Z,0.71
2022-12-04T16:08:31.172Z,0.66
2022-12-04T16:11:08.105Z,0.62
2022-12-04T16:13:39.011Z,0.73
2022-12-04T16:16:08.031Z,0.67
2022-12-04T16:18:35.178Z,0.68
2022-12-04T16:21:02.056Z,0.69
2022-12-04T16:23:28.736Z,0.78
2022-12-04T16:25:55.469Z,0.70
2022-12-04T16:28:22.105Z,0.69
2022-12-04T16:30:51.582Z,0.62
2022-12-04T16:33:19.081Z,0.68
2022-12-04T16:35:45.647Z,0.65
2022-12-04T16:38:15.590Z,0.60
2022-12-04T16:40:43.869Z,0.62
2022-12-04T16:43:15.364Z,0.56
2022-12-04T16:45:46.384Z,0.52
2022-12-04T16:48:13.608Z,0.86
2022-12-04T16:50:40.450Z,0.74
2022-12-04T16:53:07.105Z,0.95
2022-12-04T16:55:40.238Z,1.02
2022-12-04T16:58:08.189Z,0.70
2022-12-04T17:00:36.390Z,0.58
2022-12-04T17:03:04.693Z,0.55
2022-12-04T17:05:35.637Z,0.50
2022-12-04T17:08:02.520Z,0.43
2022-12-04T17:10:30.090Z,0.42
2022-12-04T17:12:56.679Z,0.40
2022-12-04T17:15:23.546Z,0.46
2022-12-04T17:17:50.650Z,0.65
2022-12-04T17:20:20.090Z,0.55
2022-12-04T17:22:46.989Z,0.53
2022-12-04T17:25:13.789Z,0.52
2022-12-04T17:27:40.583Z,0.69
2022-12-04T17:30:08.313Z,0.58
2022-12-04T17:32:35.728Z,0.52
2022-12-04T17:35:03.193Z,0.51
2022-12-04T17:37:32.209Z,0.46
2022-12-04T17:39:59.119Z,0.41
2022-12-04T17:42:25.747Z,0.39
2022-12-04T17:44:52.409Z,0.41
2022-12-04T17:47:19.017Z,0.44
2022-12-04T17:49:45.575Z,0.47
2022-12-04T17:52:12.114Z,0.51
2022-12-04T17:54:38.671Z,0.54
2022-12-04T17:57:05.223Z,0.63
2022-12-04T17:59:31.910Z,0.61
2022-12-04T18:01:58.511Z,0.61
2022-12-04T18:04:25.152Z,0.61
2022-12-04T18:06:52.668Z,0.76
2022-12-04T18:09:19.523Z,0.67
2022-12-04T18:11:47.729Z,0.66
2022-12-04T18:14:18.139Z,0.76
2022-12-04T18:16:52.888Z,0.72
2022-12-04T18:19:21.991Z,0.72
2022-12-04T18:21:49.214Z,0.71
2022-12-04T18:24:16.805Z,0.61
2022-12-04T18:26:46.024Z,0.58
2022-12-04T18:29:15.174Z,0.68
2022-12-04T18:31:42.233Z,1.01
2022-12-04T18:34:09.426Z,0.79
2022-12-04T18:36:43.040Z,0.67
2022-12-04T18:39:19.041Z,0.79
2022-12-04T18:41:46.369Z,0.75
2022-12-04T18:44:13.633Z,0.70
2022-12-04T18:46:41.025Z,0.77
2022-12-04T18:49:09.209Z,0.74
2022-12-04T18:51:42.286Z,0.84
2022-12-04T18:54:18.703Z,0.86
2022-12-04T18:56:45.953Z,1.06
2022-12-04T18:59:19.816Z,1.09
2022-12-04T19:01:49.809Z,1.13
2022-12-04T19:04:18.649Z,0.98
2022-12-04T19:06:47.653Z,0.86
2022-12-04T19:09:21.264Z,0.69
2022-12-04T19:11:48.060Z,0.67
2022-12-04T19:14:23.168Z,0.69
2022-12-04T19:16:51.165Z,0.68
2022-12-04T19:19:18.056Z,0.74
2022-12-04T19:21:44.716Z,0.73
2022-12-04T19:24:11.706Z,0.66
2022-12-04T19:26:38.868Z,0.98
2022-12-04T19:29:06.346Z,1.03
2022-12-04T19:31:35.222Z,0.96
2022-12-04T19:34:02.462Z,0.79
2022-12-04T19:36:30.777Z,0.66
2022-12-04T19:38:58.185Z,0.69
2022-12-04T19:41:27.118Z,0.72
2022-12-04T19:43:56.984Z,0.61
2022-12-04T19:46:26.438Z,0.65
2022-12-04T19:48:54.639Z,0.66
2022-12-04T19:51:21.759Z,0.98
2022-12-04T19:53:49.452Z,1.03
2022-12-04T19:56:24.114Z,0.85
2022-12-04T19:58:52.415Z,0.76
2022-12-04T20:01:24.089Z,1.31
2022-12-04T20:03:50.645Z,0.93
2022-12-04T20:06:20.268Z,0.76
2022-12-04T20:08:47.754Z,0.81
2022-12-04T20:11:18.441Z,0.74
2022-12-04T20:13:47.105Z,0.68
2022-12-04T20:16:16.781Z,0.64
2022-12-04T20:18:44.582Z,0.87
2022-12-04T20:21:12.412Z,0.74
2022-12-04T20:23:49.369Z,0.74
2022-12-04T20:26:21.820Z,0.53
2022-12-04T20:28:48.661Z,0.48
2022-12-04T20:31:21.247Z,0.67
2022-12-04T20:33:50.499Z,0.60
2022-12-04T20:36:21.936Z,0.57
2022-12-04T20:38:51.156Z,0.79
2022-12-04T20:41:18.738Z,0.70
2022-12-04T20:43:46.936Z,0.60
2022-12-04T20:46:24.595Z,0.50
2022-12-04T20:48:53.461Z,0.49
2022-12-04T20:51:25.189Z,0.45
2022-12-04T20:53:53.251Z,0.47
2022-12-04T20:56:25.797Z,0.43
2022-12-04T20:58:57.919Z,0.39
2022-12-04T21:01:25.240Z,0.47
2022-12-04T21:03:52.974Z,0.41
2022-12-04T21:06:31.044Z,0.45
2022-12-04T21:09:02.158Z,0.53
2022-12-04T21:11:33.413Z,0.43
2022-12-04T21:14:20.700Z,0.37
2022-12-04T21:16:48.102Z,0.46
2022-12-04T21:19:16.865Z,0.44
2022-12-04T21:21:43.905Z,0.45
2022-12-04T21:24:12.589Z,0.43
2022-12-04T21:26:39.298Z,0.40
2022-12-04T21:29:07.467Z,0.43
2022-12-04T21:31:35.913Z,0.49
2022-12-04T21:34:04.582Z,0.55
2022-12-04T21:36:31.606Z,0.57
2022-12-04T21:38:58.293Z,0.56
2022-12-04T21:41:43.761Z,0.68
2022-12-04T21:44:13.524Z,0.59
2022-12-04T21:46:40.816Z,0.51
2022-12-04T21:49:08.118Z,0.44
2022-12-04T21:54:21.459Z,0.67
2022-12-04T21:56:48.012Z,0.64
2022-12-04T21:59:14.791Z,0.67
2022-12-04T22:01:41.744Z,1.02
2022-12-04T22:04:08.445Z,0.87
2022-12-04T22:06:36.348Z,0.79
2022-12-04T22:09:06.906Z,1.07
2022-12-04T22:11:33.831Z,0.97
2022-12-04T22:14:00.712Z,1.05
2022-12-04T22:16:30.683Z,0.79
2022-12-04T22:18:59.004Z,0.88
2022-12-04T22:21:26.620Z,0.82
2022-12-04T22:23:57.535Z,1.10
2022-12-04T22:26:25.098Z,1.08
2022-12-04T22:28:52.093Z,1.06
2022-12-04T22:31:20.478Z,0.73
2022-12-04T22:33:48.771Z,0.59
2022-12-04T22:36:18.304Z,0.61
2022-12-04T22:39:08.291Z,0.65
2022-12-04T22:41:32.290Z,0.61
2022-12-04T22:43:58.835Z,0.55
2022-12-04T22:46:25.496Z,0.54
2022-12-04T22:48:52.109Z,0.52
2022-12-04T22:51:20.592Z,0.53
2022-12-04T22:53:50.544Z,0.51
2022-12-04T22:56:29.338Z,0.47
2022-12-04T22:58:57.665Z,0.47
2022-12-04T23:01:30.304Z,0.70
2022-12-04T23:03:57.533Z,0.64
2022-12-04T23:06:26.893Z,0.56
2022-12-04T23:09:07.711Z,0.52
2022-12-04T23:11:35.306Z,0.53
2022-12-04T23:14:04.310Z,0.61
2022-12-04T23:16:33.219Z,0.60
2022-12-04T23:19:00.269Z,0.55
2022-12-04T23:21:27.864Z,0.55
2022-12-04T23:23:55.528Z,0.50
2022-12-04T23:26:32.152Z,0.55
2022-12-04T23:28:59.126Z,0.62
2022-12-04T23:31:26.104Z,0.73
2022-12-04T23:33:52.712Z,0.80
2022-12-04T23:36:20.000Z,0.72
2022-12-04T23:38:47.021Z,0.77
2022-12-04T23:41:24.961Z,0.81
2022-12-04T23:43:53.023Z,0.77
2022-12-04T23:46:24.999Z,0.74
2022-12-04T23:48:51.803Z,0.88
2022-12-04T23:51:19.922Z,0.80
2022-12-04T23:53:47.620Z,0.75
2022-12-04T23:56:23.364Z,1.09
2022-12-04T23:58:51.758Z,1.00
